OIFS

Details ICAO OIFS (CQD)
Name SHAHRE KORD
Region Iran
Timezone Asia/Tehran (UTC+4.5)
Plans Departing 5
Arriving 6
Stats Elevation 6,723 ft / 2,049 m (AMSL)
Location 32.296796° 50.841747°
Runways 1
Magnetic Variation 3.944° E
Sunrise 2018-05-27 01:33:53 UTC / 2018-05-27 06:03:53 Local
Sunset 2018-05-27 15:36:32 UTC / 2018-05-27 20:06:32 Local
Advertisement - Login to hide

Runways

ID Width Length Bearing (true) Bearing (mag) Surface Threshold Offset Overrun Length
14 148 ft / 45 m 10,836 ft / 3,303 m 146.85° 142.91° Asphalt 483 ft / 147 m 0 ft / 0 m
32 148 ft / 45 m 10,836 ft / 3,303 m 326.86° 322.92° Asphalt 478 ft / 146 m 0 ft / 0 m

Map

Weather


0- 5 10 15 20 25 30 35+ Temperature / ° C

Clouds and Precipitation
Forecast for 2018-05-27 18:00 UTC. Updated an hour ago

Ground ~20,000 ft ~40,000 ft Winds

METAR

OIFS 271800Z 04010KT 9999 FEW040 21/03 Q1023

TAF

Not found

Frequencies

Tower 121.70 MHz INFO
Tower 118.50 MHz INFO
Warning: Do not use this data for real-world aviation or navigation. No guarantee of current accuracy is given.